Time;durP1;ratioP1;P1;durP2;ratioP2;P2;SDS_P1;SDS_P2;PMS_P1;PMS_P2;Temp;Humidity;BMP_temperature;BMP_pressure;BME280_temperature;BME280_humidity;BME280_pressure;Samples;Min_cycle;Max_cycle;Signal;HPM_P1;HPM_P2
2021/12/19 07:02:14;;;;;;;13.93;5.95;;;5.20;72.20;;;;;;2129852;56;6955430;-77
2021/12/19 07:04:41;;;;;;;12.68;5.57;;;5.00;71.70;;;;;;2190950;57;21314;-80
2021/12/19 07:07:11;;;;;;;11.00;4.97;;;5.10;72.10;;;;;;2403651;56;21002;-81
2021/12/19 07:09:38;;;;;;;11.65;5.15;;;5.20;72.20;;;;;;2406195;56;21034;-80
2021/12/19 07:12:12;;;;;;;13.07;5.97;;;5.20;72.10;;;;;;2184208;58;20981;-80
2021/12/19 07:14:43;;;;;;;12.25;5.50;;;5.20;72.00;;;;;;2180852;58;21516;-81
2021/12/19 07:17:11;;;;;;;9.85;5.37;;;5.20;71.90;;;;;;2363329;57;20953;-81
2021/12/19 07:19:40;;;;;;;9.95;4.68;;;5.20;71.90;;;;;;2181489;58;20992;-80
2021/12/19 07:22:14;;;;;;;8.75;4.25;;;5.20;71.90;;;;;;2373802;58;20985;-81
2021/12/19 07:24:47;;;;;;;7.18;3.97;;;5.30;72.10;;;;;;2377990;58;21449;-80
2021/12/19 07:27:17;;;;;;;9.07;4.25;;;5.30;72.20;;;;;;2177064;59;21008;-80
2021/12/19 07:29:48;;;;;;;8.18;4.37;;;5.30;72.10;;;;;;2376999;57;21848;-81
2021/12/19 07:32:15;;;;;;;10.55;5.43;;;5.30;72.10;;;;;;2370727;57;20945;-82
2021/12/19 07:34:47;;;;;;;11.05;5.10;;;5.40;72.10;;;;;;2380728;57;21081;-81
2021/12/19 07:37:14;;;;;;;8.75;4.62;;;5.40;72.10;;;;;;2170548;59;20944;-82
2021/12/19 07:39:57;;;;;;;11.32;5.20;;;5.40;72.10;;;;;;2380587;58;21056;-81
2021/12/19 07:42:23;;;;;;;10.43;4.18;;;5.40;72.10;;;;;;2165962;59;21024;-81
2021/12/19 07:44:59;;;;;;;9.77;4.37;;;5.50;72.20;;;;;;2375317;57;20956;-81
2021/12/19 07:47:28;;;;;;;9.27;4.78;;;5.50;72.10;;;;;;2367277;57;20960;-82
2021/12/19 07:49:55;;;;;;;8.77;4.25;;;5.60;72.20;;;;;;2173932;59;21095;-81
2021/12/19 07:52:24;;;;;;;11.18;4.90;;;5.50;72.10;;;;;;2379866;57;21901;-81
2021/12/19 07:54:51;;;;;;;9.18;4.85;;;5.50;72.10;;;;;;2374953;57;21006;-81
2021/12/19 07:57:17;;;;;;;9.77;4.80;;;5.60;72.20;;;;;;2371621;58;21000;-80
2021/12/19 07:59:58;;;;;;;12.55;6.62;;;5.60;72.20;;;;;;2163627;59;21436;-81
2021/12/19 08:02:25;;;;;;;9.32;5.20;;;5.60;72.20;;;;;;2168308;59;21061;-80
2021/12/19 08:04:53;;;;;;;7.80;4.30;;;5.60;72.10;;;;;;2368262;57;21088;-81
2021/12/19 08:07:23;;;;;;;8.75;4.40;;;5.70;72.30;;;;;;2176206;59;20992;-81
2021/12/19 08:25:48;;;;;;;5.32;2.30;;;5.60;72.10;;;;;;2425136;52;23896;-74
2021/12/19 08:28:14;;;;;;;6.53;2.60;;;5.80;72.00;;;;;;2353650;53;20965;-74
2021/12/19 08:30:40;;;;;;;6.55;3.00;;;5.80;72.20;;;;;;2329988;53;21736;-75
2021/12/19 08:33:06;;;;;;;5.82;3.00;;;5.80;72.20;;;;;;2337757;53;20942;-74
2021/12/19 08:35:33;;;;;;;5.90;2.80;;;5.80;72.30;;;;;;2538862;52;20926;-75
2021/12/19 08:38:03;;;;;;;5.97;2.87;;;5.80;72.30;;;;;;2342915;53;21067;-75
2021/12/19 08:40:31;;;;;;;6.22;3.00;;;5.90;72.50;;;;;;2355971;52;21308;-74
2021/12/19 08:42:58;;;;;;;5.43;2.60;;;5.90;72.60;;;;;;2454862;53;20954;-74
2021/12/19 08:45:24;;;;;;;4.53;2.28;;;5.90;72.60;;;;;;2339934;53;21031;-75
2021/12/19 08:47:50;;;;;;;6.00;2.95;;;5.90;72.50;;;;;;2322516;53;20932;-74
2021/12/19 08:50:18;;;;;;;6.40;2.78;;;6.00;72.50;;;;;;2329609;54;21198;-74
2021/12/19 08:52:44;;;;;;;5.53;2.70;;;6.00;72.40;;;;;;2315927;53;20941;-75
2021/12/19 08:55:12;;;;;;;7.82;3.50;;;6.00;72.30;;;;;;2339007;53;21028;-74
2021/12/19 08:57:38;;;;;;;7.07;3.33;;;6.00;72.20;;;;;;2317262;53;21003;-74
2021/12/19 09:00:07;;;;;;;8.40;3.92;;;6.00;72.10;;;;;;2334306;53;20957;-75
2021/12/19 09:02:35;;;;;;;9.35;4.53;;;6.00;72.80;;;;;;2494222;53;20956;-74
2021/12/19 09:05:01;;;;;;;8.07;4.47;;;6.00;72.20;;;;;;2343427;53;20955;-75
2021/12/19 09:07:30;;;;;;;8.30;4.00;;;6.00;72.20;;;;;;2455298;53;20999;-75
2021/12/19 09:09:56;;;;;;;7.47;3.65;;;6.10;72.30;;;;;;2407856;53;20995;-75
2021/12/19 09:12:22;;;;;;;9.00;4.32;;;6.10;72.30;;;;;;2381652;52;21804;-74
2021/12/19 09:14:49;;;;;;;6.25;3.45;;;6.10;72.20;;;;;;2357784;53;20956;-75
2021/12/19 09:17:16;;;;;;;6.55;2.90;;;6.10;72.20;;;;;;2593424;52;20988;-74
2021/12/19 09:19:42;;;;;;;7.47;3.42;;;6.10;72.20;;;;;;2545973;52;20987;-74
2021/12/19 09:22:09;;;;;;;7.85;3.62;;;6.10;72.10;;;;;;2447920;52;21007;-74
2021/12/19 09:24:35;;;;;;;8.30;3.78;;;6.10;72.10;;;;;;2367710;52;20996;-75
2021/12/19 09:27:03;;;;;;;5.25;2.37;;;6.20;71.80;;;;;;2368641;52;20949;-75
2021/12/19 09:29:32;;;;;;;5.78;2.40;;;6.20;71.80;;;;;;2490773;53;20956;-75
2021/12/19 09:31:59;;;;;;;5.82;2.75;;;6.20;71.90;;;;;;2380177;53;21007;-75
2021/12/19 09:34:28;;;;;;;5.87;2.75;;;6.20;72.00;;;;;;2352482;53;20935;-75
2021/12/19 09:36:55;;;;;;;6.37;2.90;;;6.20;71.70;;;;;;2368316;53;21594;-75
2021/12/19 09:39:23;;;;;;;6.87;2.80;;;6.20;71.70;;;;;;2598728;52;21031;-75
2021/12/19 09:41:53;;;;;;;6.47;2.90;;;6.20;71.70;;;;;;2360233;53;20973;-74
2021/12/19 09:44:20;;;;;;;5.65;2.50;;;6.20;71.70;;;;;;2349914;53;20943;-74
2021/12/19 09:46:46;;;;;;;7.37;2.83;;;6.20;71.60;;;;;;2368806;53;21213;-75
2021/12/19 09:49:15;;;;;;;5.70;2.60;;;6.20;71.60;;;;;;2521154;52;20963;-74
2021/12/19 09:51:41;;;;;;;7.75;2.95;;;6.10;71.60;;;;;;2363002;53;21040;-76
2021/12/19 09:54:08;;;;;;;5.90;3.05;;;6.10;71.70;;;;;;2590841;52;20971;-74
2021/12/19 09:56:35;;;;;;;7.28;2.87;;;6.20;71.70;;;;;;2476508;52;20989;-74
2021/12/19 09:59:22;;;;;;;7.35;3.53;;;6.10;71.70;;;;;;2415769;53;20964;-75
2021/12/19 10:01:49;;;;;;;7.32;3.62;;;6.20;71.80;;;;;;2428205;52;21435;-75
2021/12/19 10:04:37;;;;;;;7.07;3.60;;;6.20;71.80;;;;;;2348273;53;20951;-75
2021/12/19 10:07:24;;;;;;;7.55;3.97;;;6.20;71.40;;;;;;2423165;53;21051;-75
2021/12/19 10:10:01;;;;;;;8.40;3.72;;;6.20;71.40;;;;;;2479281;52;20988;-75
2021/12/19 10:12:48;;;;;;;8.43;3.97;;;6.20;71.70;;;;;;2427284;53;20975;-74
2021/12/19 10:15:25;;;;;;;6.82;3.50;;;6.20;71.70;;;;;;2366823;53;20919;-75
2021/12/19 10:18:03;;;;;;;6.82;3.33;;;6.20;71.60;;;;;;2356196;53;21064;-74
2021/12/19 10:20:44;;;;;;;6.40;3.00;;;6.20;71.20;;;;;;2359234;53;21008;-75
2021/12/19 10:23:29;;;;;;;6.57;3.15;;;6.20;71.20;;;;;;2456028;52;21555;-74
2021/12/19 10:26:09;;;;;;;6.78;3.58;;;6.20;71.10;;;;;;2366658;53;20939;-75
2021/12/19 10:28:52;;;;;;;7.68;3.80;;;6.10;71.00;;;;;;2338556;53;21069;-75
2021/12/19 10:31:20;;;;;;;5.75;2.92;;;6.10;71.00;;;;;;2343074;53;20930;-76
2021/12/19 10:33:47;;;;;;;6.70;3.42;;;6.10;71.00;;;;;;2465363;53;21842;-75
2021/12/19 10:36:14;;;;;;;5.37;3.03;;;6.10;71.90;;;;;;2436592;52;20974;-74
2021/12/19 10:38:46;;;;;;;7.15;3.72;;;6.10;71.30;;;;;;2583487;52;20950;-74
2021/12/19 10:41:34;;;;;;;7.43;3.53;;;6.10;71.40;;;;;;2580271;53;21872;-75
2021/12/19 10:44:05;;;;;;;6.85;3.20;;;6.10;71.20;;;;;;2406757;53;21161;-74
2021/12/19 10:46:39;;;;;;;7.07;3.87;;;6.10;71.50;;;;;;2356743;53;20917;-75
2021/12/19 10:49:22;;;;;;;7.22;3.42;;;6.10;71.40;;;;;;2616719;52;21005;-74
2021/12/19 10:51:48;;;;;;;7.57;3.30;;;6.10;71.40;;;;;;2370179;53;21312;-75
2021/12/19 10:54:15;;;;;;;7.80;3.30;;;6.10;71.70;;;;;;2368072;53;21466;-75
2021/12/19 10:56:41;;;;;;;7.95;3.90;;;6.10;71.70;;;;;;2348114;53;21424;-75
2021/12/19 10:59:14;;;;;;;8.00;3.83;;;6.10;71.70;;;;;;2586026;52;20941;-74
2021/12/19 11:01:54;;;;;;;8.27;4.18;;;6.10;71.70;;;;;;2418817;52;20917;-75
2021/12/19 11:04:23;;;;;;;11.15;4.85;;;6.10;71.40;;;;;;2401424;52;21364;-75
2021/12/19 11:06:51;;;;;;;8.05;3.85;;;6.10;71.40;;;;;;2569107;52;21517;-74
2021/12/19 11:09:20;;;;;;;9.55;4.22;;;6.10;71.50;;;;;;2360575;52;20980;-75
2021/12/19 11:11:57;;;;;;;9.80;4.53;;;6.10;71.60;;;;;;2366189;53;20885;-75
2021/12/19 11:14:37;;;;;;;7.10;3.92;;;6.20;71.60;;;;;;2394621;52;20921;-75
2021/12/19 11:17:10;;;;;;;10.05;5.03;;;6.20;71.60;;;;;;2378857;52;21410;-75
2021/12/19 11:19:38;;;;;;;10.80;4.53;;;6.20;71.60;;;;;;2367494;53;20881;-75
2021/12/19 11:22:12;;;;;;;8.15;4.07;;;6.20;71.70;;;;;;2364684;53;20946;-75
2021/12/19 11:24:39;;;;;;;8.93;4.45;;;6.20;71.70;;;;;;2365998;53;20921;-75
2021/12/19 11:27:06;;;;;;;7.55;4.22;;;6.20;71.70;;;;;;2367361;53;20977;-75
2021/12/19 11:29:33;;;;;;;7.62;3.97;;;6.20;71.70;;;;;;2367572;53;20897;-75
2021/12/19 11:32:01;;;;;;;8.25;4.03;;;6.20;71.70;;;;;;2544579;52;20925;-75
2021/12/19 11:35:12;;;;;;;8.00;4.07;;;6.20;71.70;;;;;;2495730;52;20917;-74
2021/12/19 11:37:41;;;;;;;8.73;4.35;;;6.30;71.40;;;;;;2366938;53;20933;-75
2021/12/19 11:40:08;;;;;;;8.57;4.43;;;6.30;71.60;;;;;;2367028;53;20980;-76
2021/12/19 11:42:39;;;;;;;7.40;3.95;;;6.30;71.50;;;;;;2366896;53;20989;-73
2021/12/19 11:45:47;;;;;;;7.82;4.18;;;6.30;71.40;;;;;;2374485;53;21004;-75
2021/12/19 11:48:29;;;;;;;8.68;4.10;;;6.20;70.90;;;;;;2366785;53;20930;-74
2021/12/19 11:51:15;;;;;;;7.55;3.80;;;6.20;70.90;;;;;;2367070;53;20989;-75
2021/12/19 11:53:43;;;;;;;8.43;4.18;;;6.20;70.80;;;;;;2522692;52;20990;-74
2021/12/19 11:56:11;;;;;;;8.93;3.92;;;6.20;71.00;;;;;;2366443;53;21056;-75
2021/12/19 11:58:45;;;;;;;7.87;3.87;;;6.20;71.00;;;;;;2435229;52;21519;-75
2021/12/19 12:01:35;;;;;;;7.90;3.92;;;6.10;70.90;;;;;;2367788;53;21004;-75
2021/12/19 12:04:14;;;;;;;7.10;3.78;;;6.10;70.60;;;;;;2373491;53;21456;-74
2021/12/19 12:06:41;;;;;;;8.95;4.00;;;6.10;70.70;;;;;;2366353;53;20929;-75
2021/12/19 12:09:18;;;;;;;6.87;3.50;;;6.10;71.00;;;;;;2378554;52;21056;-74
2021/12/19 12:15:16;;;;;;;7.00;3.67;;;6.10;71.00;;;;;;2366950;53;21759;-74
2021/12/19 12:17:50;;;;;;;7.50;3.80;;;6.10;70.40;;;;;;2362336;53;22491;-75
2021/12/19 12:20:20;;;;;;;7.82;3.53;;;6.10;71.00;;;;;;2409116;52;21010;-74
2021/12/19 12:23:03;;;;;;;7.82;4.00;;;6.10;71.20;;;;;;2398275;52;21421;-75
2021/12/19 12:25:32;;;;;;;8.23;3.80;;;6.10;71.10;;;;;;2364465;53;20974;-74
2021/12/19 12:28:08;;;;;;;8.05;3.90;;;6.10;71.30;;;;;;2345135;53;20917;-75
2021/12/19 12:30:45;;;;;;;8.20;4.05;;;6.10;71.20;;;;;;2356268;53;21445;-75
2021/12/19 12:33:14;;;;;;;7.15;3.35;;;6.10;71.20;;;;;;2553773;52;20941;-74
2021/12/19 12:35:41;;;;;;;8.65;4.00;;;6.10;71.20;;;;;;2365883;52;21429;-74
2021/12/19 12:38:08;;;;;;;7.28;3.85;;;6.10;71.20;;;;;;2357398;53;21332;-74
2021/12/19 12:43:35;;;;;;;8.43;3.92;;;6.10;71.00;;;;;;2459652;52;21003;-74
2021/12/19 12:46:35;;;;;;;7.70;3.85;;;6.10;71.10;;;;;;2357470;53;20933;-74
2021/12/19 12:49:06;;;;;;;9.02;4.25;;;6.10;70.90;;;;;;2361139;53;21488;-74
2021/12/19 12:51:35;;;;;;;9.20;3.95;;;6.10;71.80;;;;;;2357945;53;20953;-75
2021/12/19 12:54:30;;;;;;;9.00;4.28;;;6.10;71.20;;;;;;2358057;53;21965;-74
2021/12/19 12:56:58;;;;;;;7.32;3.50;;;6.10;71.00;;;;;;2338493;54;21466;-75
2021/12/19 12:59:39;;;;;;;7.85;3.70;;;6.10;71.00;;;;;;2441215;52;21396;-75
2021/12/19 13:02:15;;;;;;;8.38;4.22;;;6.10;71.00;;;;;;2389972;52;21316;-75
2021/12/19 13:04:50;;;;;;;7.53;3.97;;;6.10;71.00;;;;;;2360642;53;21455;-75
2021/12/19 13:07:17;;;;;;;7.43;3.40;;;6.00;71.00;;;;;;2357524;53;21400;-75
2021/12/19 13:09:56;;;;;;;8.30;4.10;;;6.10;71.10;;;;;;2386892;52;22131;-74
2021/12/19 13:12:32;;;;;;;8.57;3.72;;;6.10;71.00;;;;;;2423919;52;21395;-74
2021/12/19 13:15:00;;;;;;;9.10;4.18;;;6.10;71.00;;;;;;2381195;52;20997;-75
2021/12/19 13:17:34;;;;;;;7.80;3.60;;;6.00;70.90;;;;;;2358985;53;20949;-75
2021/12/19 13:20:17;;;;;;;8.07;4.28;;;6.00;70.70;;;;;;2358211;53;20882;-75
2021/12/19 13:22:50;;;;;;;6.10;3.40;;;6.00;70.70;;;;;;2458448;52;21264;-75
2021/12/19 13:25:50;;;;;;;7.55;3.67;;;6.00;70.70;;;;;;2358734;53;21364;-75
2021/12/19 13:28:20;;;;;;;7.50;3.58;;;6.00;70.30;;;;;;2431059;52;20924;-74
2021/12/19 13:30:47;;;;;;;7.60;3.67;;;5.90;70.50;;;;;;2357036;53;20901;-75
2021/12/19 13:33:18;;;;;;;6.72;3.33;;;5.90;70.60;;;;;;2606829;52;21441;-75
2021/12/19 13:35:49;;;;;;;7.12;3.35;;;5.90;70.60;;;;;;2336402;53;21893;-75
2021/12/19 13:38:20;;;;;;;7.15;3.62;;;5.90;70.60;;;;;;2607318;52;21544;-75
2021/12/19 13:40:55;;;;;;;7.40;3.60;;;5.90;70.60;;;;;;2404379;52;21449;-74
2021/12/19 13:43:22;;;;;;;6.55;3.25;;;5.90;70.80;;;;;;2444368;52;20980;-74
2021/12/19 13:46:08;;;;;;;6.97;3.53;;;5.80;70.70;;;;;;2362205;53;20914;-74
2021/12/19 13:48:37;;;;;;;7.22;3.35;;;5.80;70.60;;;;;;2411090;52;21635;-75
2021/12/19 13:51:11;;;;;;;5.72;2.78;;;5.80;70.70;;;;;;2365384;53;20982;-74
2021/12/19 13:53:43;;;;;;;6.00;2.67;;;5.80;70.80;;;;;;2490978;52;21889;-75
2021/12/19 13:56:32;;;;;;;4.12;2.17;;;5.80;71.00;;;;;;2340685;53;21005;-75
2021/12/19 13:59:00;;;;;;;5.62;2.75;;;5.80;71.30;;;;;;2380635;52;21273;-75
2021/12/19 14:01:33;;;;;;;6.10;3.35;;;5.80;71.10;;;;;;2360836;53;20974;-75
2021/12/19 14:04:04;;;;;;;;;;;5.80;71.10;;;;;;2360682;53;21511;-75
2021/12/19 14:06:37;;;;;;;6.68;3.30;;;5.90;70.60;;;;;;2455207;52;20318;-74
2021/12/19 14:09:22;;;;;;;5.45;3.08;;;5.90;71.10;;;;;;2367094;52;21037;-74
2021/12/19 14:11:56;;;;;;;4.68;2.55;;;5.90;70.80;;;;;;2361646;53;21914;-75
2021/12/19 14:14:34;;;;;;;8.63;3.87;;;5.90;71.10;;;;;;2361000;53;20941;-75
2021/12/19 14:17:09;;;;;;;6.75;3.87;;;5.90;71.00;;;;;;2578479;52;21582;-74
2021/12/19 14:19:39;;;;;;;6.32;3.20;;;5.90;70.80;;;;;;2414433;52;21016;-74
2021/12/19 14:22:16;;;;;;;5.05;2.78;;;5.80;70.60;;;;;;2357544;53;20960;-75
2021/12/19 14:24:55;;;;;;;5.50;2.97;;;5.80;70.60;;;;;;2360198;52;21515;-75
2021/12/19 14:27:28;;;;;;;5.62;2.72;;;5.80;70.70;;;;;;2449913;52;21534;-75
2021/12/19 14:30:00;;;;;;;6.03;3.08;;;5.80;70.70;;;;;;2493265;52;21185;-74
2021/12/19 14:32:34;;;;;;;5.50;3.20;;;5.80;70.70;;;;;;2359548;53;20958;-75
2021/12/19 14:35:02;;;;;;;6.18;3.15;;;5.80;70.70;;;;;;2439486;52;21045;-74
2021/12/19 14:37:36;;;;;;;6.82;3.03;;;5.80;70.70;;;;;;2357360;53;22063;-73
2021/12/19 14:43:04;;;;;;;6.93;2.90;;;5.70;70.40;;;;;;2470484;52;20969;-74
2021/12/19 14:45:53;;;;;;;6.90;3.58;;;5.70;70.00;;;;;;2410774;52;20969;-74
2021/12/19 14:48:27;;;;;;;6.47;2.92;;;5.70;70.30;;;;;;2342590;53;20978;-75
2021/12/19 14:50:59;;;;;;;5.72;2.70;;;5.70;70.60;;;;;;2361706;53;21523;-76
2021/12/19 14:53:29;;;;;;;6.25;3.35;;;5.70;70.70;;;;;;2343022;53;21452;-74
2021/12/19 14:56:04;;;;;;;7.28;3.20;;;5.70;70.10;;;;;;2357794;53;20929;-75
2021/12/19 14:58:32;;;;;;;6.82;3.12;;;5.60;70.60;;;;;;2432737;52;20922;-76
2021/12/19 15:01:06;;;;;;;5.97;3.20;;;5.60;70.60;;;;;;2592840;52;20937;-75
2021/12/19 15:03:33;;;;;;;5.55;2.95;;;5.60;70.50;;;;;;2542232;52;21428;-75
2021/12/19 15:06:01;;;;;;;6.25;3.55;;;5.60;70.60;;;;;;2363980;53;21976;-75
2021/12/19 15:08:28;;;;;;;7.30;3.60;;;5.60;70.60;;;;;;2358726;53;20932;-74
2021/12/19 15:10:56;;;;;;;7.78;3.80;;;5.60;70.60;;;;;;2406209;52;20993;-75
2021/12/19 15:13:22;;;;;;;5.18;2.40;;;5.60;70.50;;;;;;2338113;53;20925;-75
2021/12/19 15:15:49;;;;;;;6.12;2.95;;;5.60;70.60;;;;;;2404476;52;21009;-75
2021/12/19 15:18:16;;;;;;;5.82;2.45;;;5.50;70.50;;;;;;2359063;53;20990;-75
2021/12/19 15:20:42;;;;;;;6.93;2.62;;;5.50;70.50;;;;;;2358152;53;20905;-75
2021/12/19 15:23:09;;;;;;;6.00;3.03;;;5.50;70.70;;;;;;2541458;52;20969;-75
2021/12/19 15:25:41;;;;;;;5.90;2.87;;;5.50;70.70;;;;;;2425232;52;20964;-74
2021/12/19 15:28:12;;;;;;;7.55;3.15;;;5.50;70.70;;;;;;2358112;53;20976;-76
2021/12/19 15:30:38;;;;;;;6.30;2.92;;;5.50;70.70;;;;;;2358152;53;20897;-74
2021/12/19 15:33:06;;;;;;;7.45;3.12;;;5.50;70.60;;;;;;2356416;53;20933;-75
2021/12/19 15:35:33;;;;;;;6.28;3.20;;;5.50;70.60;;;;;;2361845;53;21949;-75
2021/12/19 15:37:59;;;;;;;6.85;3.40;;;5.40;70.30;;;;;;2347532;53;20952;-76
2021/12/19 15:40:31;;;;;;;5.90;3.03;;;5.40;70.30;;;;;;2352964;53;20913;-75
2021/12/19 15:42:58;;;;;;;5.85;3.08;;;5.40;70.10;;;;;;2337571;54;21013;-75
2021/12/19 15:45:25;;;;;;;7.05;3.62;;;5.40;70.30;;;;;;2448186;52;20921;-75
2021/12/19 15:47:53;;;;;;;7.50;3.08;;;5.40;70.30;;;;;;2366412;52;22024;-75
2021/12/19 15:50:20;;;;;;;8.68;3.65;;;5.30;70.40;;;;;;2357487;53;20933;-75
2021/12/19 15:52:46;;;;;;;9.18;4.25;;;5.30;70.50;;;;;;2359940;53;20980;-75
2021/12/19 15:55:13;;;;;;;8.02;3.85;;;5.30;70.50;;;;;;2376790;52;20958;-75
2021/12/19 15:57:40;;;;;;;6.68;3.45;;;5.30;70.70;;;;;;2608910;52;20913;-74
2021/12/19 16:00:09;;;;;;;6.85;3.30;;;5.30;70.70;;;;;;2356794;53;20913;-75
2021/12/19 16:02:35;;;;;;;7.05;3.40;;;5.30;70.60;;;;;;2359141;53;21536;-74
2021/12/19 16:05:02;;;;;;;7.40;3.62;;;5.20;70.60;;;;;;2337613;53;20941;-75
2021/12/19 16:07:28;;;;;;;6.85;3.12;;;5.20;70.50;;;;;;2561890;52;21787;-75
2021/12/19 16:09:55;;;;;;;10.73;4.60;;;5.20;70.40;;;;;;2360743;53;20965;-74
2021/12/19 16:12:21;;;;;;;8.95;4.65;;;5.20;70.50;;;;;;2338321;53;20948;-75
2021/12/19 16:14:48;;;;;;;10.88;5.30;;;5.20;70.50;;;;;;2364448;53;20937;-76
2021/12/19 16:17:14;;;;;;;8.93;4.28;;;5.20;70.50;;;;;;2379210;53;20957;-75
2021/12/19 16:19:40;;;;;;;9.18;4.57;;;5.20;70.60;;;;;;2361181;53;20954;-75
2021/12/19 16:22:06;;;;;;;9.57;4.50;;;5.10;70.50;;;;;;2357869;53;20901;-75
2021/12/19 16:24:33;;;;;;;7.55;4.25;;;5.10;70.60;;;;;;2361388;53;21119;-75
2021/12/19 16:26:59;;;;;;;7.28;3.67;;;5.10;70.50;;;;;;2357270;53;20944;-74
2021/12/19 16:29:28;;;;;;;7.47;3.67;;;5.20;70.50;;;;;;2359743;53;21025;-76
2021/12/19 16:31:59;;;;;;;9.38;4.57;;;5.10;70.40;;;;;;2357101;53;20939;-74
2021/12/19 16:34:26;;;;;;;9.75;4.35;;;5.10;70.50;;;;;;2452046;52;21033;-74
2021/12/19 16:36:54;;;;;;;9.57;4.05;;;5.10;70.60;;;;;;2362632;53;21033;-75
2021/12/19 16:39:23;;;;;;;12.82;4.85;;;5.10;70.70;;;;;;2348194;53;20972;-74
2021/12/19 16:42:10;;;;;;;8.57;4.15;;;5.00;70.60;;;;;;2474062;52;20921;-74
2021/12/19 16:44:37;;;;;;;7.62;3.95;;;5.10;70.70;;;;;;2481981;53;21273;-75
2021/12/19 16:47:03;;;;;;;8.60;3.78;;;5.00;70.80;;;;;;2509907;52;20964;-75
2021/12/19 16:49:32;;;;;;;10.40;5.03;;;5.00;70.90;;;;;;2370984;52;20977;-75
2021/12/19 16:51:58;;;;;;;9.02;4.50;;;5.00;71.00;;;;;;2394331;52;21032;-75
2021/12/19 16:54:26;;;;;;;12.98;4.60;;;5.00;71.00;;;;;;2361538;53;21033;-75
2021/12/19 16:56:52;;;;;;;11.02;5.10;;;5.00;71.00;;;;;;2609275;52;21432;-74
2021/12/19 16:59:20;;;;;;;11.00;4.45;;;5.00;71.00;;;;;;2360726;53;20985;-75
2021/12/19 17:01:46;;;;;;;12.25;5.82;;;5.10;71.20;;;;;;2359773;53;20972;-75
2021/12/19 17:04:13;;;;;;;9.93;4.72;;;5.00;71.10;;;;;;2357584;53;20926;-74
2021/12/19 17:06:54;;;;;;;10.95;4.72;;;5.00;71.20;;;;;;2357986;53;20940;-75
2021/12/19 17:09:21;;;;;;;10.68;5.05;;;5.00;71.20;;;;;;2358318;53;20949;-75
2021/12/19 17:11:51;;;;;;;8.68;4.32;;;5.10;71.40;;;;;;2361636;53;20950;-74
2021/12/19 17:14:18;;;;;;;11.52;5.30;;;5.10;71.40;;;;;;2357651;53;20922;-75
2021/12/19 17:16:46;;;;;;;10.95;5.15;;;5.10;71.40;;;;;;2408076;52;20929;-74
2021/12/19 17:19:12;;;;;;;12.10;5.37;;;5.10;71.40;;;;;;2361076;53;21064;-75
2021/12/19 17:21:38;;;;;;;13.05;5.78;;;5.10;71.40;;;;;;2359530;52;20945;-74
2021/12/19 17:24:06;;;;;;;14.02;6.72;;;5.10;71.50;;;;;;2361619;53;21932;-75
2021/12/19 17:26:32;;;;;;;10.82;6.00;;;5.10;71.50;;;;;;2352269;53;21036;-74
2021/12/19 17:28:59;;;;;;;11.88;6.12;;;5.10;71.40;;;;;;2350372;53;21032;-75
2021/12/19 17:31:25;;;;;;;12.55;5.28;;;5.20;71.50;;;;;;2361306;53;21937;-74
2021/12/19 17:33:53;;;;;;;12.65;5.57;;;5.20;71.50;;;;;;2360915;53;21024;-75
2021/12/19 17:36:19;;;;;;;10.45;4.87;;;5.20;71.50;;;;;;2362244;53;20926;-75
2021/12/19 17:38:48;;;;;;;11.00;5.10;;;5.20;71.60;;;;;;2345418;53;21940;-74
2021/12/19 17:41:18;;;;;;;9.15;4.30;;;5.20;71.60;;;;;;2362914;53;20953;-74
2021/12/19 17:43:46;;;;;;;8.90;4.35;;;5.20;71.60;;;;;;2338507;54;20913;-75
2021/12/19 17:46:13;;;;;;;10.88;5.12;;;5.30;71.70;;;;;;2580292;52;20920;-75
2021/12/19 17:48:39;;;;;;;11.68;5.40;;;5.20;71.60;;;;;;2361413;53;21912;-76
2021/12/19 17:51:05;;;;;;;10.25;5.45;;;5.30;71.70;;;;;;2476365;52;20987;-74
2021/12/19 17:53:32;;;;;;;10.55;5.93;;;5.30;71.60;;;;;;2361360;53;20966;-74
2021/12/19 17:56:00;;;;;;;10.98;5.50;;;5.30;71.60;;;;;;2361374;53;20953;-75
2021/12/19 17:58:29;;;;;;;11.05;4.90;;;5.30;71.50;;;;;;2358484;53;20929;-75
2021/12/19 18:00:56;;;;;;;11.40;5.72;;;5.30;71.50;;;;;;2358593;53;20933;-76
2021/12/19 18:03:25;;;;;;;11.70;5.03;;;5.30;71.50;;;;;;2361838;53;21375;-74
2021/12/19 18:05:54;;;;;;;10.48;5.65;;;5.30;71.40;;;;;;2360965;53;20942;-76
2021/12/19 18:08:21;;;;;;;12.07;5.12;;;5.30;71.40;;;;;;2449021;52;20917;-75
2021/12/19 18:10:49;;;;;;;9.65;4.70;;;5.30;71.40;;;;;;2358511;53;20953;-75
2021/12/19 18:13:18;;;;;;;9.27;4.68;;;5.30;71.40;;;;;;2307040;54;20999;-76
2021/12/19 18:15:44;;;;;;;11.12;5.65;;;5.30;71.40;;;;;;2320797;53;21597;-74
2021/12/19 18:18:11;;;;;;;12.13;5.62;;;5.30;71.40;;;;;;2335116;53;21029;-76
2021/12/19 18:20:38;;;;;;;10.52;5.22;;;5.30;71.50;;;;;;2325655;53;21971;-75
2021/12/19 18:23:05;;;;;;;11.45;5.22;;;5.30;71.50;;;;;;2338768;53;20959;-74
2021/12/19 18:25:34;;;;;;;10.15;4.62;;;5.40;71.50;;;;;;2325701;53;21067;-75
2021/12/19 18:28:01;;;;;;;10.93;5.47;;;5.30;71.50;;;;;;2334474;53;20922;-74
2021/12/19 18:30:29;;;;;;;9.77;5.00;;;5.30;71.50;;;;;;2335019;53;20974;-74
2021/12/19 18:32:59;;;;;;;12.43;5.87;;;5.30;71.40;;;;;;2334666;53;20963;-74
2021/12/19 18:35:30;;;;;;;8.85;4.70;;;5.40;71.40;;;;;;2311130;54;20937;-75
2021/12/19 18:38:00;;;;;;;9.02;4.45;;;5.40;71.40;;;;;;2378375;53;20968;-76
2021/12/19 18:40:26;;;;;;;8.95;4.10;;;5.40;71.40;;;;;;2348654;53;20932;-74
2021/12/19 18:43:41;;;;;;;9.38;4.22;;;5.40;71.40;;;;;;2555867;52;21093;-75
2021/12/19 18:46:34;;;;;;;9.60;4.22;;;5.40;71.40;;;;;;2338292;53;21008;-75
2021/12/19 18:49:21;;;;;;;11.02;4.53;;;5.40;71.40;;;;;;2363315;53;21002;-75
2021/12/19 18:51:59;;;;;;;10.98;4.03;;;5.40;71.40;;;;;;2503333;52;21057;-75
2021/12/19 18:54:50;;;;;;;9.70;4.32;;;5.40;71.40;;;;;;2370853;53;21104;-76
2021/12/19 18:57:20;;;;;;;9.55;4.62;;;5.40;71.30;;;;;;2331957;53;21088;-76
2021/12/19 18:59:48;;;;;;;9.93;4.15;;;5.40;71.30;;;;;;2357335;53;21116;-75
2021/12/19 19:05:46;;;;;;;12.27;5.10;;;5.30;71.30;;;;;;2354165;53;21075;-75
2021/12/19 19:08:13;;;;;;;9.95;4.78;;;5.40;71.30;;;;;;2447658;52;20949;-75
2021/12/19 19:10:40;;;;;;;9.52;4.37;;;5.30;71.30;;;;;;2460806;52;20935;-75
2021/12/19 19:13:07;;;;;;;8.75;4.05;;;5.40;71.40;;;;;;2328413;53;21024;-75
2021/12/19 19:15:34;;;;;;;11.85;5.85;;;5.30;71.30;;;;;;2351928;53;22034;-75
2021/12/19 19:18:01;;;;;;;11.55;5.37;;;5.30;71.40;;;;;;2334627;53;20953;-75
2021/12/19 19:20:27;;;;;;;9.88;4.80;;;5.30;71.40;;;;;;2339863;53;20938;-75
2021/12/19 19:22:53;;;;;;;10.57;4.75;;;5.30;71.50;;;;;;2336088;54;20923;-74
2021/12/19 19:25:20;;;;;;;11.20;5.37;;;5.40;71.60;;;;;;2335588;54;20927;-75
2021/12/19 19:27:46;;;;;;;11.93;5.25;;;5.30;71.50;;;;;;2348092;53;22061;-75
2021/12/19 19:30:14;;;;;;;12.07;5.25;;;5.40;71.50;;;;;;2360287;53;21021;-75
2021/12/19 19:32:40;;;;;;;13.35;6.20;;;5.40;71.50;;;;;;2542220;52;21752;-74
2021/12/19 19:35:07;;;;;;;12.02;5.43;;;5.40;71.50;;;;;;2358658;53;20897;-75
2021/12/19 19:37:40;;;;;;;11.95;5.25;;;5.40;71.50;;;;;;2358882;53;21036;-75
2021/12/19 19:40:19;;;;;;;9.80;4.53;;;5.40;71.50;;;;;;2362350;53;21036;-75
2021/12/19 19:51:08;;;;;;;9.50;3.80;;;5.40;71.40;;;;;;2339379;53;21468;-75
2021/12/19 19:53:35;;;;;;;8.38;3.72;;;5.40;71.40;;;;;;2331175;53;21037;-75
2021/12/19 19:56:02;;;;;;;10.10;4.15;;;5.40;71.40;;;;;;2335808;53;21081;-75
2021/12/19 19:58:28;;;;;;;9.60;4.05;;;5.40;71.40;;;;;;2342510;53;21001;-75
2021/12/19 20:00:55;;;;;;;11.63;4.15;;;5.30;71.30;;;;;;2346835;53;22100;-75
2021/12/19 20:03:23;;;;;;;11.70;4.87;;;5.30;71.30;;;;;;2349730;53;21042;-75
2021/12/19 20:05:49;;;;;;;10.85;5.43;;;5.40;71.50;;;;;;2364839;53;21979;-74
2021/12/19 20:08:15;;;;;;;9.57;4.57;;;5.30;71.40;;;;;;2336678;53;21505;-75
2021/12/19 20:10:42;;;;;;;11.43;4.70;;;5.30;71.30;;;;;;2356362;53;21049;-75
2021/12/19 20:13:08;;;;;;;8.57;4.15;;;5.40;71.40;;;;;;2368641;53;21019;-75
2021/12/19 20:15:38;;;;;;;10.77;5.20;;;5.30;71.50;;;;;;2335570;53;20955;-74
2021/12/19 20:18:04;;;;;;;8.82;4.12;;;5.30;71.50;;;;;;2332634;53;20957;-75
2021/12/19 20:20:31;;;;;;;9.50;4.75;;;5.30;71.50;;;;;;2455456;52;20971;-74
2021/12/19 20:22:57;;;;;;;9.70;4.60;;;5.40;71.70;;;;;;2344977;52;20929;-75
2021/12/19 20:25:23;;;;;;;11.32;4.15;;;5.40;71.80;;;;;;2399635;52;21679;-75
2021/12/19 20:28:01;;;;;;;8.52;3.83;;;5.40;71.60;;;;;;2527056;52;20936;-75
2021/12/19 20:30:30;;;;;;;8.15;3.85;;;5.40;71.50;;;;;;2336615;53;21333;-75
2021/12/19 20:32:57;;;;;;;8.63;3.65;;;5.40;71.50;;;;;;2335996;53;22105;-74
2021/12/19 20:35:23;;;;;;;8.75;4.18;;;5.40;71.50;;;;;;2335388;53;21010;-75
2021/12/19 20:37:53;;;;;;;8.55;4.05;;;5.40;71.50;;;;;;2336411;53;21453;-75
2021/12/19 20:40:20;;;;;;;7.93;3.55;;;5.40;71.50;;;;;;2334365;53;20962;-75
2021/12/19 20:42:46;;;;;;;7.97;3.65;;;5.40;71.60;;;;;;2357363;53;20970;-75
2021/12/19 20:45:12;;;;;;;9.52;4.28;;;5.40;71.60;;;;;;2339801;53;21250;-75
2021/12/19 20:47:42;;;;;;;8.13;3.33;;;5.40;71.50;;;;;;2381589;53;21053;-75
2021/12/19 20:50:14;;;;;;;6.80;3.40;;;5.40;71.30;;;;;;2335545;53;21053;-75
2021/12/19 20:52:41;;;;;;;6.37;3.00;;;5.40;71.30;;;;;;2333011;54;20961;-75